createdAt,value
2023-07-02T00:01:03.421Z,100839.75
2023-07-02T00:04:17.708Z,100834.92
2023-07-02T00:07:19.494Z,100837.65
2023-07-02T00:10:30.783Z,100838.38
2023-07-02T00:13:31.545Z,100836.23
2023-07-02T00:16:43.952Z,100835.39
2023-07-02T00:19:37.529Z,100834.56
2023-07-02T00:22:43.215Z,100834.56
2023-07-02T00:25:54.114Z,100832.64
2023-07-02T00:29:07.276Z,100833.34
2023-07-02T00:32:02.753Z,100835.79
2023-07-02T00:35:07.165Z,100830.55
2023-07-02T00:38:19.236Z,100832.10
2023-07-02T00:41:30.029Z,100839.94
2023-07-02T00:44:33.317Z,100842.85
2023-07-02T00:47:37.142Z,100838.52
2023-07-02T00:50:41.798Z,100838.42
2023-07-02T00:53:34.390Z,100836.54
2023-07-02T00:56:47.306Z,100836.81
2023-07-02T00:59:41.122Z,100836.39
2023-07-02T01:02:37.500Z,100833.14
2023-07-02T01:05:42.742Z,100838.80
2023-07-02T01:08:43.529Z,100840.23
2023-07-02T01:11:56.287Z,100834.32
2023-07-02T01:14:54.266Z,100831.79
2023-07-02T01:18:06.179Z,100831.73
2023-07-02T01:21:17.020Z,100833.45
2023-07-02T01:24:22.485Z,100843.15
2023-07-02T01:27:17.189Z,100844.02
2023-07-02T01:30:28.306Z,100844.21
2023-07-02T01:33:28.252Z,100848.89
2023-07-02T01:36:28.831Z,100848.60
2023-07-02T01:39:39.706Z,100853.13
2023-07-02T01:42:50.441Z,100857.88
2023-07-02T01:45:51.465Z,100856.34
2023-07-02T01:49:00.963Z,100857.98
2023-07-02T01:52:11.816Z,100860.54
2023-07-02T01:55:12.655Z,100855.55
2023-07-02T01:58:17.084Z,100850.42
2023-07-02T02:01:07.747Z,100850.23
2023-07-02T02:04:08.755Z,100850.88
2023-07-02T02:07:19.537Z,100842.66
2023-07-02T02:10:24.091Z,100841.19
2023-07-02T02:13:34.407Z,100840.45
2023-07-02T02:16:46.999Z,100839.52
2023-07-02T02:19:56.283Z,100840.19
2023-07-02T02:22:58.046Z,100840.92
2023-07-02T02:26:08.812Z,100844.32
2023-07-02T02:29:19.592Z,100842.37
2023-07-02T02:32:30.324Z,100846.98
2023-07-02T02:35:21.121Z,100844.95
2023-07-02T02:38:25.209Z,100848.55
2023-07-02T02:41:25.831Z,100844.27
2023-07-02T02:44:26.763Z,100848.05
2023-07-02T02:47:27.776Z,100847.44
2023-07-02T02:50:42.411Z,100838.92
2023-07-02T02:53:35.479Z,100837.88
2023-07-02T02:56:29.686Z,100838.95
2023-07-02T02:59:34.368Z,100837.51
2023-07-02T03:02:34.295Z,100838.30
2023-07-02T03:05:29.787Z,100835.59
2023-07-02T03:08:41.649Z,100836.16
2023-07-02T03:11:41.492Z,100836.02
2023-07-02T03:14:55.750Z,100834.05
2023-07-02T03:17:46.571Z,100827.70
2023-07-02T03:20:37.321Z,100827.60
2023-07-02T03:23:30.711Z,100826.16
2023-07-02T03:26:31.841Z,100824.18
2023-07-02T03:29:42.774Z,100824.98
2023-07-02T03:32:53.702Z,100823.71
2023-07-02T03:35:47.746Z,100819.94
2023-07-02T03:38:40.957Z,100815.27
2023-07-02T03:41:34.749Z,100814.77
2023-07-02T03:44:45.224Z,100814.20
2023-07-02T03:47:56.080Z,100817.33
2023-07-02T03:51:07.033Z,100816.42
2023-07-02T03:54:17.771Z,100823.91
2023-07-02T03:57:28.665Z,100816.10
2023-07-02T04:00:32.918Z,100813.74
2023-07-02T04:03:49.937Z,100813.43
2023-07-02T04:06:51.634Z,100812.95
2023-07-02T04:10:02.578Z,100812.86
2023-07-02T04:13:13.545Z,100815.45
2023-07-02T04:16:23.016Z,100812.84
2023-07-02T04:19:14.445Z,100812.14
2023-07-02T04:22:25.366Z,100815.48
2023-07-02T04:25:51.252Z,100813.17
2023-07-02T04:29:07.088Z,100812.77
2023-07-02T04:32:09.883Z,100810.38
2023-07-02T04:35:20.918Z,100805.52
2023-07-02T04:38:11.764Z,100805.05
2023-07-02T04:41:22.652Z,100809.38
2023-07-02T04:44:33.008Z,100807.90
2023-07-02T04:47:33.034Z,100807.08
2023-07-02T04:50:26.478Z,100809.94
2023-07-02T04:53:28.264Z,100809.38
2023-07-02T04:56:39.305Z,100807.35
2023-07-02T04:59:29.995Z,100808.27
2023-07-02T05:02:24.034Z,100810.20
2023-07-02T05:05:34.836Z,100812.01
2023-07-02T05:08:45.894Z,100814.50
2023-07-02T05:11:36.681Z,100817.67
2023-07-02T05:14:36.642Z,100819.21
2023-07-02T05:17:47.506Z,100818.78
2023-07-02T05:20:38.118Z,100819.37
2023-07-02T05:23:49.170Z,100821.28
2023-07-02T05:26:42.778Z,100818.55
2023-07-02T05:29:47.710Z,100814.74
2023-07-02T05:32:38.517Z,100817.83
2023-07-02T05:35:29.227Z,100821.22
2023-07-02T05:38:20.218Z,100820.22
2023-07-02T05:41:13.486Z,100817.92
2023-07-02T05:44:24.274Z,100815.42
2023-07-02T05:47:27.393Z,100821.40
2023-07-02T05:50:19.419Z,100817.17
2023-07-02T05:53:21.532Z,100811.83
2023-07-02T05:56:12.418Z,100818.64
2023-07-02T05:59:03.129Z,100816.45
2023-07-02T06:01:53.824Z,100815.63
2023-07-02T06:04:47.584Z,100814.45
2023-07-02T06:07:41.360Z,100814.39
2023-07-02T06:10:34.525Z,100822.95
2023-07-02T06:13:25.142Z,100822.05
2023-07-02T06:16:18.655Z,100820.10
2023-07-02T06:19:11.724Z,100821.60
2023-07-02T06:22:02.298Z,100818.09
2023-07-02T06:24:52.956Z,100819.82
2023-07-02T06:27:43.487Z,100824.64
2023-07-02T06:30:34.207Z,100815.63
2023-07-02T06:33:24.937Z,100813.00
2023-07-02T06:36:29.645Z,100811.54
2023-07-02T06:39:20.273Z,100813.33
2023-07-02T06:42:11.046Z,100809.27
2023-07-02T06:45:04.400Z,100810.07
2023-07-02T06:47:55.355Z,100810.17
2023-07-02T06:50:59.624Z,100816.39
2023-07-02T06:53:50.340Z,100818.80
2023-07-02T06:56:41.310Z,100814.73
2023-07-02T06:59:52.613Z,100818.04
2023-07-02T07:02:43.423Z,100812.56
2023-07-02T07:05:34.473Z,100810.89
2023-07-02T07:08:27.658Z,100814.68
2023-07-02T07:11:21.121Z,100816.73
2023-07-02T07:14:20.297Z,100816.80
2023-07-02T07:17:13.492Z,100814.04
2023-07-02T07:20:07.334Z,100816.63
2023-07-02T07:23:07.692Z,100823.36
2023-07-02T07:26:01.488Z,100822.90
2023-07-02T07:29:00.029Z,100824.27
2023-07-02T07:31:50.669Z,100822.78
2023-07-02T07:34:41.469Z,100823.60
2023-07-02T07:37:32.110Z,100822.59
2023-07-02T07:40:22.724Z,100818.60
2023-07-02T07:43:14.081Z,100816.04
2023-07-02T07:46:04.998Z,100815.71
2023-07-02T07:49:00.222Z,100816.02
2023-07-02T07:51:51.305Z,100818.58
2023-07-02T07:54:42.457Z,100821.95
2023-07-02T07:57:33.231Z,100821.59
2023-07-02T08:00:25.713Z,100814.86
2023-07-02T08:03:16.289Z,100812.08
2023-07-02T08:06:07.372Z,100810.02
2023-07-02T08:08:58.077Z,100808.48
2023-07-02T08:11:48.951Z,100809.89
2023-07-02T08:14:42.133Z,100808.66
2023-07-02T08:17:33.185Z,100806.98
2023-07-02T08:20:24.305Z,100805.43
2023-07-02T08:23:14.937Z,100800.50
2023-07-02T08:26:08.622Z,100798.13
2023-07-02T08:28:59.133Z,100795.90
2023-07-02T08:31:49.811Z,100797.26
2023-07-02T08:34:40.495Z,100791.20
2023-07-02T08:37:31.035Z,100785.44
2023-07-02T08:40:22.187Z,100782.02
2023-07-02T08:43:12.907Z,100785.55
2023-07-02T08:46:03.516Z,100787.04
2023-07-02T08:48:54.179Z,100788.27
2023-07-02T08:51:46.566Z,100783.20
2023-07-02T08:54:37.054Z,100774.97
2023-07-02T08:57:27.488Z,100777.64
2023-07-02T09:00:22.502Z,100777.22
2023-07-02T09:03:17.413Z,100776.55
2023-07-02T09:06:08.056Z,100778.80
2023-07-02T09:09:08.125Z,100776.41
2023-07-02T09:11:58.559Z,100780.42
2023-07-02T09:14:56.416Z,100775.69
2023-07-02T09:17:46.937Z,100773.31
2023-07-02T09:20:37.440Z,100774.48
2023-07-02T09:23:37.217Z,100776.27
2023-07-02T09:26:28.455Z,100780.14
2023-07-02T09:29:21.542Z,100770.37
2023-07-02T09:32:12.100Z,100769.40
2023-07-02T09:35:03.112Z,100771.65
2023-07-02T09:37:55.061Z,100769.97
2023-07-02T09:40:49.128Z,100783.60
2023-07-02T09:43:40.369Z,100787.65
2023-07-02T09:46:32.182Z,100786.35
2023-07-02T09:49:23.518Z,100776.29
2023-07-02T09:52:14.257Z,100771.64
2023-07-02T09:55:05.447Z,100777.30
2023-07-02T09:57:56.335Z,100769.97
2023-07-02T10:00:47.215Z,100768.73
2023-07-02T10:03:39.097Z,100762.68
2023-07-02T10:06:29.697Z,100756.82
2023-07-02T10:09:20.435Z,100759.69
2023-07-02T10:12:22.716Z,100752.73
2023-07-02T10:15:13.059Z,100750.72
2023-07-02T10:18:04.648Z,100747.92
2023-07-02T10:20:55.226Z,100748.80
2023-07-02T10:23:45.811Z,100747.98
2023-07-02T10:26:36.297Z,100751.01
2023-07-02T10:29:27.620Z,100753.22
2023-07-02T10:32:28.219Z,100748.71
2023-07-02T10:35:19.255Z,100749.28
2023-07-02T10:38:09.919Z,100749.97
2023-07-02T10:41:01.759Z,100755.88
2023-07-02T10:43:52.183Z,100735.57
2023-07-02T10:46:48.859Z,100729.55
2023-07-02T10:49:38.976Z,100726.80
2023-07-02T10:52:39.049Z,100721.63
2023-07-02T10:55:29.987Z,100726.63
2023-07-02T10:58:20.425Z,100727.27
2023-07-02T11:01:12.487Z,100733.35
2023-07-02T11:04:03.692Z,100731.05
2023-07-02T11:06:54.250Z,100732.88
2023-07-02T11:09:51.749Z,100729.67
2023-07-02T11:12:42.202Z,100727.40
2023-07-02T11:15:37.979Z,100725.18
2023-07-02T11:18:33.330Z,100718.92
2023-07-02T11:21:23.914Z,100721.95
2023-07-02T11:24:14.365Z,100710.12
2023-07-02T11:27:06.424Z,100710.83
2023-07-02T11:30:02.783Z,100717.14
2023-07-02T11:32:54.993Z,100708.89
2023-07-02T11:35:45.652Z,100707.52
2023-07-02T11:38:38.427Z,100714.45
2023-07-02T11:41:38.411Z,100715.21
2023-07-02T11:44:28.810Z,100714.65
2023-07-02T11:47:19.824Z,100709.70
2023-07-02T11:50:24.400Z,100714.75
2023-07-02T11:53:16.612Z,100724.20
2023-07-02T11:56:07.087Z,100736.30
2023-07-02T11:58:57.695Z,100736.78
2023-07-02T12:01:48.474Z,100731.33
2023-07-02T12:04:39.301Z,100724.15
2023-07-02T12:07:29.813Z,100712.45
2023-07-02T12:10:20.306Z,100699.36
2023-07-02T12:13:10.877Z,100689.46
2023-07-02T12:16:01.692Z,100683.30
2023-07-02T12:18:52.153Z,100677.23
2023-07-02T12:21:42.694Z,100671.94
2023-07-02T12:24:33.316Z,100675.42
2023-07-02T12:27:24.081Z,100674.92
2023-07-02T12:30:18.412Z,100677.42
2023-07-02T12:33:09.011Z,100671.05
2023-07-02T12:36:00.702Z,100675.66
2023-07-02T12:38:51.167Z,100686.05
2023-07-02T12:41:41.697Z,100696.42
2023-07-02T12:44:32.183Z,100697.37
2023-07-02T12:47:22.775Z,100699.09
2023-07-02T12:50:14.004Z,100706.34
2023-07-02T12:53:04.518Z,100711.86
2023-07-02T12:55:55.914Z,100701.98
2023-07-02T12:58:46.298Z,100696.48
2023-07-02T13:01:36.877Z,100686.36
2023-07-02T13:04:27.474Z,100690.48
2023-07-02T13:07:18.400Z,100690.44
2023-07-02T13:10:09.604Z,100683.23
2023-07-02T13:13:10.033Z,100693.98
2023-07-02T13:16:09.232Z,100691.92
2023-07-02T13:19:02.911Z,100685.56
2023-07-02T13:21:53.526Z,100686.19
2023-07-02T13:24:45.762Z,100682.08
2023-07-02T13:27:36.237Z,100669.30
2023-07-02T13:30:28.528Z,100672.85
2023-07-02T13:33:18.656Z,100674.99
2023-07-02T13:36:09.346Z,100675.88
2023-07-02T13:38:59.984Z,100677.81
2023-07-02T13:41:50.583Z,100685.89
2023-07-02T13:44:41.130Z,100686.98
2023-07-02T13:47:31.704Z,100692.86
2023-07-02T13:50:22.331Z,100693.17
2023-07-02T13:53:12.796Z,100694.96
2023-07-02T13:56:03.479Z,100686.86
2023-07-02T13:59:06.821Z,100669.71
2023-07-02T14:01:57.443Z,100662.55
2023-07-02T14:04:48.028Z,100663.88
2023-07-02T14:07:38.619Z,100658.04
2023-07-02T14:10:29.765Z,100662.52
2023-07-02T14:13:20.233Z,100670.54
2023-07-02T14:16:10.858Z,100677.23
2023-07-02T14:19:01.419Z,100680.09
2023-07-02T14:21:51.983Z,100677.75
2023-07-02T14:24:42.723Z,100682.73
2023-07-02T14:27:33.577Z,100678.95
2023-07-02T14:30:24.304Z,100689.49
2023-07-02T14:33:14.919Z,100698.46
2023-07-02T14:36:05.789Z,100701.51
2023-07-02T14:38:56.359Z,100702.86
2023-07-02T14:41:46.951Z,100704.89
2023-07-02T14:44:37.551Z,100698.14
2023-07-02T14:47:28.148Z,100704.12
2023-07-02T14:50:19.855Z,100705.00
2023-07-02T14:53:10.962Z,100703.32
2023-07-02T14:56:03.504Z,100700.42
2023-07-02T14:58:54.112Z,100692.52
2023-07-02T15:01:46.034Z,100686.80
2023-07-02T15:04:39.268Z,100686.83
2023-07-02T15:07:29.656Z,100687.70
2023-07-02T15:10:20.382Z,100683.52
2023-07-02T15:13:11.506Z,100684.52
2023-07-02T15:16:02.156Z,100685.08
2023-07-02T15:18:52.821Z,100695.28
2023-07-02T15:21:43.415Z,100696.09
2023-07-02T15:24:36.136Z,100685.23
2023-07-02T15:27:27.890Z,100689.66
2023-07-02T15:30:19.162Z,100709.94
2023-07-02T15:33:09.847Z,100721.25
2023-07-02T15:36:01.040Z,100725.14
2023-07-02T15:38:51.975Z,100720.88
2023-07-02T15:41:44.214Z,100714.26
2023-07-02T15:44:35.814Z,100707.87
2023-07-02T15:47:26.512Z,100713.37
2023-07-02T15:50:17.171Z,100706.68
2023-07-02T15:53:07.712Z,100716.43
2023-07-02T15:55:58.721Z,100720.77
2023-07-02T15:58:49.478Z,100719.44
2023-07-02T16:01:40.756Z,100720.42
2023-07-02T16:04:31.370Z,100723.59
2023-07-02T16:07:22.258Z,100726.20
2023-07-02T16:10:12.877Z,100726.71
2023-07-02T16:13:03.594Z,100721.02
2023-07-02T16:15:54.716Z,100710.73
2023-07-02T16:18:45.252Z,100713.54
2023-07-02T16:21:38.235Z,100720.02
2023-07-02T16:24:30.295Z,100725.60
2023-07-02T16:27:21.780Z,100735.80
2023-07-02T16:30:13.252Z,100745.73
2023-07-02T16:33:03.885Z,100754.89
2023-07-02T16:35:54.527Z,100756.45
2023-07-02T16:38:45.650Z,100748.73
2023-07-02T16:41:38.126Z,100742.39
2023-07-02T16:44:29.552Z,100742.75
2023-07-02T16:47:20.201Z,100737.86
2023-07-02T16:50:11.671Z,100738.35
2023-07-02T16:53:05.413Z,100745.20
2023-07-02T16:55:59.411Z,100750.36
2023-07-02T16:58:50.093Z,100746.19
2023-07-02T17:01:40.826Z,100744.95
2023-07-02T17:04:31.620Z,100736.36
2023-07-02T17:07:22.155Z,100736.34
2023-07-02T17:10:13.118Z,100728.45
2023-07-02T17:13:03.499Z,100724.08
2023-07-02T17:15:54.289Z,100743.33
2023-07-02T17:18:44.955Z,100761.72
2023-07-02T17:21:36.508Z,100768.80
2023-07-02T17:24:27.734Z,100771.20
2023-07-02T17:27:19.297Z,100766.88
2023-07-02T17:30:11.952Z,100764.69
2023-07-02T17:33:02.421Z,100761.08
2023-07-02T17:35:52.912Z,100755.91
2023-07-02T17:38:43.403Z,100753.90
2023-07-02T17:41:33.835Z,100752.30
2023-07-02T17:44:26.890Z,100746.60
2023-07-02T17:47:18.885Z,100737.27
2023-07-02T17:50:10.302Z,100734.58
2023-07-02T17:53:00.900Z,100735.74
2023-07-02T17:55:52.004Z,100732.61
2023-07-02T17:58:42.784Z,100738.45
2023-07-02T18:01:41.950Z,100734.66
2023-07-02T18:07:23.808Z,100722.73
2023-07-02T18:10:14.487Z,100723.95
2023-07-02T18:13:05.343Z,100725.64
2023-07-02T18:15:58.085Z,100734.52
2023-07-02T18:18:48.868Z,100725.30
2023-07-02T18:21:39.425Z,100728.54
2023-07-02T18:24:30.440Z,100728.93
2023-07-02T18:27:21.002Z,100731.70
2023-07-02T18:30:12.350Z,100730.91
2023-07-02T18:33:03.017Z,100732.07
2023-07-02T18:35:55.766Z,100733.58
2023-07-02T18:38:46.393Z,100733.38
2023-07-02T18:41:36.996Z,100733.23
2023-07-02T18:44:30.473Z,100733.02
2023-07-02T18:47:22.480Z,100736.19
2023-07-02T18:50:14.792Z,100735.09
2023-07-02T18:53:05.319Z,100736.98
2023-07-02T18:56:00.361Z,100737.56
2023-07-02T18:58:50.534Z,100735.13
2023-07-02T19:01:44.145Z,100739.84
2023-07-02T19:04:35.381Z,100739.81
2023-07-02T19:07:26.011Z,100742.30
2023-07-02T19:10:17.861Z,100742.86
2023-07-02T19:13:12.254Z,100741.52
2023-07-02T19:16:02.866Z,100743.13
2023-07-02T19:18:53.524Z,100744.86
2023-07-02T19:21:46.748Z,100742.79
2023-07-02T19:24:37.392Z,100746.19
2023-07-02T19:27:28.278Z,100742.47
2023-07-02T19:30:22.067Z,100740.10
2023-07-02T19:33:13.002Z,100741.77
2023-07-02T19:36:07.105Z,100742.13
2023-07-02T19:38:57.757Z,100741.17
2023-07-02T19:41:56.150Z,100742.79
2023-07-02T19:44:54.497Z,100741.20
2023-07-02T19:47:45.310Z,100743.30
2023-07-02T19:50:39.015Z,100742.36
2023-07-02T19:53:30.271Z,100743.55
2023-07-02T19:56:29.732Z,100739.91
2023-07-02T19:59:20.422Z,100743.50
2023-07-02T20:02:11.492Z,100740.95
2023-07-02T20:05:03.002Z,100742.15
2023-07-02T20:07:53.681Z,100748.23
2023-07-02T20:10:44.244Z,100747.45
2023-07-02T20:13:35.360Z,100742.77
2023-07-02T20:16:29.127Z,100745.73
2023-07-02T20:19:21.946Z,100744.00
2023-07-02T20:22:14.805Z,100745.52
2023-07-02T20:25:35.617Z,100746.35
2023-07-02T20:28:16.675Z,100748.69
2023-07-02T20:31:07.760Z,100752.78
2023-07-02T20:34:02.298Z,100754.80
2023-07-02T20:36:57.468Z,100756.83
2023-07-02T20:39:49.337Z,100757.73
2023-07-02T20:43:00.898Z,100762.21
2023-07-02T20:45:55.513Z,100761.55
2023-07-02T20:48:46.190Z,100766.45
2023-07-02T20:51:57.008Z,100768.08
2023-07-02T20:54:47.733Z,100769.19
2023-07-02T20:57:41.484Z,100773.80
2023-07-02T21:00:42.010Z,100784.22
2023-07-02T21:03:41.517Z,100787.31
2023-07-02T21:06:52.681Z,100793.84
2023-07-02T21:09:46.313Z,100800.83
2023-07-02T21:12:37.267Z,100805.84
2023-07-02T21:15:39.212Z,100803.51
2023-07-02T21:18:50.243Z,100805.70
2023-07-02T21:21:47.428Z,100812.08
2023-07-02T21:24:38.660Z,100815.39
2023-07-02T21:27:29.593Z,100821.27
2023-07-02T21:30:21.162Z,100820.17
2023-07-02T21:33:14.700Z,100819.66
2023-07-02T21:36:09.069Z,100823.02
2023-07-02T21:39:03.132Z,100822.19
2023-07-02T21:41:56.080Z,100823.33
2023-07-02T21:45:09.969Z,100822.23
2023-07-02T21:48:11.595Z,100819.52
2023-07-02T21:51:02.329Z,100823.23
2023-07-02T21:53:55.439Z,100825.39
2023-07-02T21:57:06.638Z,100824.70
2023-07-02T22:00:18.235Z,100824.67
2023-07-02T22:03:09.284Z,100825.23
2023-07-02T22:06:05.696Z,100820.90
2023-07-02T22:08:59.057Z,100820.30
2023-07-02T22:11:52.124Z,100823.31
2023-07-02T22:14:57.467Z,100823.80
2023-07-02T22:17:50.676Z,100828.21
2023-07-02T22:20:55.403Z,100825.66
2023-07-02T22:23:49.396Z,100829.23
2023-07-02T22:26:40.090Z,100827.62
2023-07-02T22:29:30.886Z,100826.30
2023-07-02T22:32:31.879Z,100825.40
2023-07-02T22:35:22.770Z,100824.05
2023-07-02T22:38:33.593Z,100821.25
2023-07-02T22:41:44.548Z,100821.86
2023-07-02T22:44:35.228Z,100825.02
2023-07-02T22:47:46.327Z,100820.50
2023-07-02T22:50:39.726Z,100817.31
2023-07-02T22:53:30.486Z,100810.45
2023-07-02T22:56:22.183Z,100806.91
2023-07-02T22:59:33.054Z,100807.07
2023-07-02T23:02:33.818Z,100803.38
2023-07-02T23:05:24.987Z,100801.06
2023-07-02T23:08:36.011Z,100802.08
2023-07-02T23:11:37.510Z,100806.21
2023-07-02T23:14:39.251Z,100802.05
2023-07-02T23:17:30.063Z,100803.92
2023-07-02T23:20:23.326Z,100803.65
2023-07-02T23:23:14.726Z,100798.80
2023-07-02T23:26:07.877Z,100798.83
2023-07-02T23:29:08.175Z,100796.69
2023-07-02T23:32:14.230Z,100794.40
2023-07-02T23:35:32.642Z,100795.19
2023-07-02T23:38:24.092Z,100793.41
2023-07-02T23:41:24.500Z,100787.44
2023-07-02T23:44:26.453Z,100785.64
2023-07-02T23:47:19.356Z,100784.23
2023-07-02T23:50:28.686Z,100781.27
2023-07-02T23:53:31.552Z,100780.93
2023-07-02T23:56:42.527Z,100782.59
2023-07-02T23:59:36.579Z,100780.61
